Time;durP1;ratioP1;P1;durP2;ratioP2;P2;SDS_P1;SDS_P2;PMS_P1;PMS_P2;Temp;Humidity;BMP_temperature;BMP_pressure;BME280_temperature;BME280_humidity;BME280_pressure;Samples;Min_cycle;Max_cycle;Signal;HPM_P1;HPM_P2
2021/07/28 00:08:45;;;;;;;16.80;14.53;;;18.50;99.90;;;;;;6248873;22;20452;-86
2021/07/28 00:11:35;;;;;;;17.53;15.80;;;18.50;99.90;;;;;;6263837;22;20403;-86
2021/07/28 00:14:16;;;;;;;19.60;15.80;;;18.50;99.90;;;;;;6239601;22;20829;-86
2021/07/28 00:17:01;;;;;;;17.27;15.47;;;18.40;99.90;;;;;;6238437;22;20440;-86
2021/07/28 00:20:08;;;;;;;17.43;15.50;;;18.50;99.90;;;;;;6237383;22;20396;-87
2021/07/28 00:25:28;;;;;;;17.87;16.00;;;18.40;99.90;;;;;;6264847;22;20396;-87
2021/07/28 00:28:16;;;;;;;18.37;15.40;;;18.40;99.90;;;;;;6236884;22;20482;-86
2021/07/28 00:31:21;;;;;;;16.77;14.77;;;18.30;99.90;;;;;;6238277;22;20455;-87
2021/07/28 00:33:56;;;;;;;16.47;14.00;;;18.40;99.90;;;;;;6262842;22;20479;-87
2021/07/28 00:36:53;;;;;;;16.03;14.07;;;18.40;99.90;;;;;;6237484;22;20710;-86
2021/07/28 00:47:29;;;;;;;14.67;13.00;;;18.40;99.90;;;;;;6254194;22;20456;-89
2021/07/28 00:50:06;;;;;;;14.70;13.17;;;18.40;99.90;;;;;;6240090;22;20428;-89
2021/07/28 00:52:39;;;;;;;18.27;13.70;;;18.40;99.90;;;;;;6245155;22;20425;-88
2021/07/28 00:55:09;;;;;;;14.37;12.33;;;18.40;99.90;;;;;;6245693;22;20413;-88
2021/07/28 01:13:26;;;;;;;13.93;12.63;;;18.30;99.90;;;;;;6263643;22;20836;-86
2021/07/28 01:16:05;;;;;;;15.50;13.63;;;18.50;99.90;;;;;;6237873;22;20491;-86
2021/07/28 01:22:31;;;;;;;15.93;13.70;;;18.30;99.90;;;;;;6170469;23;20391;-86
2021/07/28 01:26:01;;;;;;;18.83;13.50;;;18.30;99.90;;;;;;6236472;22;20873;-85
2021/07/28 01:57:33;;;;;;;18.27;14.40;;;18.10;99.90;;;;;;6220852;22;21853;-87
2021/07/28 02:28:09;;;;;;;20.23;14.70;;;18.10;99.90;;;;;;6265312;22;20444;-87
2021/07/28 02:31:06;;;;;;;;;;;;;;;;;;;;;
2021/07/28 04:28:46;;;;;;;19.17;17.20;;;17.80;99.90;;;;;;6256882;22;20422;-86
2021/07/28 04:31:11;;;;;;;19.77;17.73;;;17.80;99.90;;;;;;6238348;22;20504;-84
2021/07/28 04:33:37;;;;;;;22.37;17.50;;;17.80;99.90;;;;;;6237361;22;20476;-83
2021/07/28 04:36:03;;;;;;;19.83;17.70;;;17.80;99.90;;;;;;6234810;22;20702;-84
2021/07/28 04:38:28;;;;;;;22.47;17.97;;;17.90;99.90;;;;;;6236230;22;20159;-83
2021/07/28 04:40:54;;;;;;;19.23;17.17;;;17.90;99.90;;;;;;6236573;22;20191;-84
2021/07/28 04:43:21;;;;;;;20.20;16.73;;;17.90;99.90;;;;;;6237025;22;20627;-84
2021/07/28 04:45:55;;;;;;;18.87;16.83;;;18.00;99.90;;;;;;6228750;22;20496;-85
2021/07/28 04:48:21;;;;;;;19.90;17.80;;;18.10;99.90;;;;;;6238740;22;20761;-85
2021/07/28 04:50:48;;;;;;;20.90;17.87;;;18.10;99.90;;;;;;6266483;22;20384;-85
2021/07/28 04:53:14;;;;;;;21.70;19.10;;;18.00;99.90;;;;;;6239422;22;20393;-85
2021/07/28 04:55:40;;;;;;;21.33;17.57;;;18.20;99.90;;;;;;6266434;22;20391;-85
2021/07/28 04:58:07;;;;;;;27.33;18.60;;;18.20;99.90;;;;;;6262579;22;20501;-85
2021/07/28 05:00:33;;;;;;;22.10;18.37;;;18.30;99.90;;;;;;6235428;22;20396;-85
2021/07/28 05:02:59;;;;;;;22.17;17.40;;;18.30;99.90;;;;;;6240566;22;20988;-85
2021/07/28 05:05:25;;;;;;;23.00;18.30;;;18.30;99.90;;;;;;6237905;22;20163;-85
2021/07/28 05:07:52;;;;;;;20.60;17.70;;;18.30;99.90;;;;;;6236720;22;20198;-85
2021/07/28 05:10:17;;;;;;;21.17;18.97;;;18.20;99.90;;;;;;6241868;22;20185;-84
2021/07/28 05:12:43;;;;;;;19.23;17.23;;;18.20;99.90;;;;;;6241465;22;20405;-85
2021/07/28 05:15:11;;;;;;;21.10;18.00;;;18.20;99.90;;;;;;6240111;22;20162;-85
2021/07/28 05:17:37;;;;;;;21.47;18.20;;;18.10;99.90;;;;;;6267018;22;20193;-84
2021/07/28 05:20:03;;;;;;;17.73;15.83;;;18.20;99.90;;;;;;6241278;22;20396;-84
2021/07/28 05:22:28;;;;;;;17.57;15.77;;;18.20;99.90;;;;;;6241834;22;20620;-84
2021/07/28 05:24:55;;;;;;;18.87;17.07;;;18.30;99.90;;;;;;6237571;22;20445;-85
2021/07/28 05:27:20;;;;;;;17.70;15.97;;;18.40;99.90;;;;;;6238722;22;20617;-85
2021/07/28 05:29:46;;;;;;;18.23;15.37;;;18.40;99.90;;;;;;6238890;22;20495;-85
2021/07/28 05:32:24;;;;;;;18.67;16.70;;;18.30;99.90;;;;;;6241109;22;20173;-87
2021/07/28 05:35:12;;;;;;;17.83;15.93;;;18.40;99.90;;;;;;6215916;22;20170;-88
2021/07/28 06:57:58;;;;;;;8.10;7.30;;;18.60;99.90;;;;;;6221144;22;20416;-85
2021/07/28 08:17:28;;;;;;;6.53;5.77;;;17.80;99.90;;;;;;6265484;22;21013;-87
2021/07/28 08:20:10;;;;;;;6.97;6.23;;;17.80;99.90;;;;;;6260525;22;20402;-86
2021/07/28 08:22:48;;;;;;;8.83;5.40;;;17.60;99.90;;;;;;6238751;22;20401;-88
2021/07/28 08:25:17;;;;;;;6.83;6.07;;;17.50;99.90;;;;;;6231866;22;20452;-86
2021/07/28 08:27:46;;;;;;;10.13;6.00;;;17.50;99.90;;;;;;6240398;22;20389;-87
2021/07/28 08:30:37;;;;;;;8.53;6.40;;;17.50;99.90;;;;;;6237994;22;20399;-87
2021/07/28 08:34:05;;;;;;;6.40;5.47;;;17.40;99.90;;;;;;6239297;22;20504;-86
2021/07/28 08:36:54;;;;;;;;;;;;;;;;;;;;;
2021/07/28 08:42:57;;;;;;;5.17;4.50;;;17.50;99.90;;;;;;6195932;22;20765;-86
2021/07/28 08:51:54;;;;;;;;;;;;;;;;;;;;;
2021/07/28 08:55:30;;;;;;;;;;;;;;;;;;;;;
2021/07/28 08:58:44;;;;;;;;;;;;;;;;;;;;;
2021/07/28 09:01:41;;;;;;;6.23;5.73;;;18.50;99.90;;;;;;6265331;22;20463;-86
2021/07/28 09:04:25;;;;;;;6.77;5.00;;;18.50;99.90;;;;;;6237552;22;20527;-87
2021/07/28 09:17:34;;;;;;;5.60;5.10;;;18.70;99.90;;;;;;5971784;23;20402;-88
2021/07/28 09:25:51;;;;;;;6.07;5.47;;;18.90;99.90;;;;;;6236638;22;20477;-87
2021/07/28 09:28:27;;;;;;;5.43;5.00;;;18.90;99.90;;;;;;6118378;23;20400;-87
2021/07/28 09:34:32;;;;;;;5.47;4.97;;;19.00;99.90;;;;;;6142744;23;20697;-86
2021/07/28 09:38:07;;;;;;;4.93;4.53;;;19.10;99.90;;;;;;6128191;22;20407;-85
2021/07/28 09:40:44;;;;;;;4.60;4.20;;;19.00;99.90;;;;;;6114222;23;20412;-88
2021/07/28 09:43:20;;;;;;;5.07;4.20;;;18.80;99.90;;;;;;6141079;23;20439;-86
2021/07/28 09:45:51;;;;;;;4.30;3.90;;;19.00;99.90;;;;;;6116179;23;20400;-86
2021/07/28 09:48:38;;;;;;;4.60;4.10;;;19.10;99.90;;;;;;6137899;23;20409;-85
2021/07/28 09:51:27;;;;;;;3.73;3.40;;;19.10;99.90;;;;;;6141524;23;20467;-84
2021/07/28 09:54:02;;;;;;;4.03;3.63;;;18.90;99.90;;;;;;6141917;23;20404;-84
2021/07/28 09:57:20;;;;;;;5.03;4.00;;;19.00;99.90;;;;;;6185270;23;20401;-84
2021/07/28 10:16:04;;;;;;;;;;;;;;;;;;;;;
2021/07/28 10:55:04;;;;;;;4.00;3.70;;;20.50;99.90;;;;;;6268391;22;20436;-88
2021/07/28 10:58:17;;;;;;;4.20;3.53;;;20.50;99.90;;;;;;6247588;22;20411;-89
2021/07/28 11:00:54;;;;;;;4.50;3.70;;;20.40;99.90;;;;;;6238081;22;20432;-88
2021/07/28 11:03:27;;;;;;;4.33;3.67;;;20.80;99.90;;;;;;6237597;22;20436;-88
2021/07/28 11:06:22;;;;;;;4.50;4.10;;;20.90;99.90;;;;;;6243291;22;20439;-88
2021/07/28 11:08:51;;;;;;;3.97;3.67;;;21.00;99.90;;;;;;6247801;22;20408;-89
2021/07/28 11:11:42;;;;;;;6.20;4.17;;;20.70;99.90;;;;;;6249594;22;20391;-87
2021/07/28 11:14:10;;;;;;;5.30;3.93;;;20.90;99.90;;;;;;6274341;22;20814;-87
2021/07/28 11:16:35;;;;;;;7.10;4.43;;;21.10;99.90;;;;;;6241416;22;20464;-87
2021/07/28 11:19:03;;;;;;;4.33;4.03;;;21.00;99.90;;;;;;6267150;22;20417;-87
2021/07/28 11:21:50;;;;;;;5.27;4.77;;;21.00;99.90;;;;;;6239709;22;20154;-88
2021/07/28 11:24:21;;;;;;;5.60;5.10;;;21.10;99.90;;;;;;6238790;22;20445;-88
2021/07/28 11:26:50;;;;;;;4.87;4.00;;;21.70;99.90;;;;;;6267731;22;20439;-88
2021/07/28 11:29:20;;;;;;;4.43;4.13;;;21.50;99.90;;;;;;6239660;22;20158;-85
2021/07/28 11:32:07;;;;;;;4.60;4.07;;;21.00;99.90;;;;;;6265559;22;20389;-87
2021/07/28 11:35:29;;;;;;;4.77;4.37;;;21.10;99.90;;;;;;6237035;22;20487;-89
2021/07/28 11:39:03;;;;;;;;;;;;;;;;;;;;;
2021/07/28 12:03:08;;;;;;;5.30;3.90;;;22.50;99.90;;;;;;6252649;22;20436;-86
2021/07/28 12:06:13;;;;;;;4.20;3.80;;;22.80;99.10;;;;;;6235068;22;20475;-89
2021/07/28 12:09:20;;;;;;;3.73;3.43;;;23.00;99.30;;;;;;6236815;22;20419;-89
2021/07/28 12:44:21;;;;;;;4.77;4.27;;;23.80;97.10;;;;;;6240170;22;20902;-88
2021/07/28 12:47:20;;;;;;;4.33;4.00;;;24.10;97.30;;;;;;6235916;22;20732;-90
2021/07/28 12:49:46;;;;;;;3.93;3.47;;;24.60;97.60;;;;;;6265797;22;20861;-91
2021/07/28 12:52:29;;;;;;;;;;;;;;;;;;;;;
2021/07/28 12:54:55;;;;;;;4.47;4.07;;;25.30;94.40;;;;;;6295309;22;20260;-91
2021/07/28 12:58:01;;;;;;;4.40;3.80;;;25.20;94.80;;;;;;6296862;22;20717;-90
2021/07/28 13:00:39;;;;;;;4.20;3.80;;;24.60;96.30;;;;;;6222679;22;20162;-89
2021/07/28 13:03:54;;;;;;;;;;;;;;;;;;;;;
2021/07/28 13:06:24;;;;;;;5.30;4.40;;;24.50;96.90;;;;;;6286266;22;20710;-91
2021/07/28 13:08:56;;;;;;;4.27;3.67;;;24.50;96.10;;;;;;6288192;22;20388;-88
2021/07/28 13:21:01;;;;;;;5.00;4.60;;;24.60;95.10;;;;;;6244768;22;20965;-90
2021/07/28 13:27:05;;;;;;;4.13;3.77;;;25.90;94.40;;;;;;6245584;22;20385;-90
2021/07/28 13:29:38;;;;;;;6.47;5.90;;;26.10;92.00;;;;;;6255297;22;20732;-88
2021/07/28 13:32:04;;;;;;;4.03;3.73;;;25.60;93.10;;;;;;6223547;22;20480;-88
2021/07/28 13:34:30;;;;;;;4.00;3.70;;;25.30;93.40;;;;;;6261162;22;20477;-86
2021/07/28 13:36:59;;;;;;;5.10;4.53;;;24.80;94.00;;;;;;6255474;22;20396;-90
2021/07/28 13:45:26;;;;;;;4.73;4.37;;;24.10;95.20;;;;;;6215969;22;20389;-87
2021/07/28 13:47:52;;;;;;;4.93;4.53;;;24.10;95.20;;;;;;6257032;22;20764;-86
2021/07/28 13:50:21;;;;;;;5.43;4.20;;;25.90;93.50;;;;;;6232403;22;20399;-85
2021/07/28 13:52:54;;;;;;;4.67;4.20;;;27.30;91.70;;;;;;6259431;22;20458;-86
2021/07/28 13:55:19;;;;;;;3.93;3.63;;;27.70;91.50;;;;;;6258482;22;20411;-86
2021/07/28 13:57:47;;;;;;;3.70;3.50;;;28.80;89.00;;;;;;6259364;22;20459;-87
2021/07/28 14:00:16;;;;;;;4.20;3.90;;;28.20;87.90;;;;;;6231511;22;20744;-86
2021/07/28 14:02:45;;;;;;;4.20;3.90;;;27.50;90.10;;;;;;6232911;22;20444;-86
2021/07/28 14:05:14;;;;;;;4.73;4.13;;;27.10;89.50;;;;;;6249108;22;20437;-88
2021/07/28 14:07:40;;;;;;;4.53;4.23;;;26.00;91.70;;;;;;6231153;22;20408;-89
2021/07/28 14:10:15;;;;;;;3.80;3.47;;;26.00;91.80;;;;;;6233540;22;20819;-89
2021/07/28 14:12:47;;;;;;;5.20;3.60;;;29.40;85.90;;;;;;6232105;22;20477;-87
2021/07/28 14:15:24;;;;;;;4.87;4.10;;;31.90;76.40;;;;;;6232162;22;20762;-87
2021/07/28 14:18:38;;;;;;;;;;;;;;;;;;;;;
2021/07/28 14:21:34;;;;;;;4.20;3.90;;;33.00;66.30;;;;;;6254450;22;20415;-86
2021/07/28 14:24:09;;;;;;;4.13;3.83;;;32.70;64.90;;;;;;6230848;22;20444;-87
2021/07/28 14:26:40;;;;;;;4.17;3.87;;;32.10;64.10;;;;;;6232857;22;20407;-88
2021/07/28 14:29:09;;;;;;;5.63;3.90;;;32.90;62.10;;;;;;6232873;22;20385;-86
2021/07/28 14:31:42;;;;;;;3.67;3.40;;;33.30;60.80;;;;;;6232172;22;20409;-84
2021/07/28 14:34:09;;;;;;;6.10;3.90;;;32.40;61.60;;;;;;6260924;22;20388;-86
2021/07/28 14:36:36;;;;;;;4.00;3.70;;;33.00;60.90;;;;;;6234422;22;20413;-85
2021/07/28 14:39:04;;;;;;;3.50;3.23;;;34.10;58.50;;;;;;6231854;22;20456;-84
2021/07/28 14:41:30;;;;;;;3.73;3.40;;;34.30;57.50;;;;;;6261497;22;20380;-84
2021/07/28 14:43:57;;;;;;;4.07;3.77;;;35.10;56.70;;;;;;6248956;22;20448;-86
2021/07/28 14:46:25;;;;;;;4.30;4.00;;;34.40;55.30;;;;;;6254808;22;20161;-87
2021/07/28 14:48:52;;;;;;;4.10;3.80;;;34.60;57.20;;;;;;6255718;22;20400;-84
2021/07/28 14:51:20;;;;;;;4.47;4.10;;;33.80;55.90;;;;;;6257643;22;20483;-85
2021/07/28 14:53:47;;;;;;;3.67;3.47;;;33.60;55.70;;;;;;6230918;22;20404;-84
2021/07/28 14:56:15;;;;;;;4.20;3.90;;;32.80;56.30;;;;;;6257689;22;20774;-88
2021/07/28 14:58:44;;;;;;;4.27;3.87;;;30.60;60.20;;;;;;6229867;22;20486;-87
2021/07/28 15:01:10;;;;;;;5.13;4.73;;;30.50;62.50;;;;;;6257677;22;20385;-87
2021/07/28 15:03:47;;;;;;;4.27;3.90;;;29.80;63.30;;;;;;6258432;22;20213;-86
2021/07/28 15:06:13;;;;;;;4.33;4.00;;;28.50;66.60;;;;;;6258965;22;20419;-89
2021/07/28 15:08:46;;;;;;;3.87;3.57;;;28.50;70.20;;;;;;6259686;22;20902;-92
2021/07/28 15:11:13;;;;;;;5.10;4.10;;;31.00;65.90;;;;;;6231416;22;20396;-87
2021/07/28 15:13:39;;;;;;;3.63;3.33;;;34.10;59.50;;;;;;6231204;22;20405;-88
2021/07/28 15:16:16;;;;;;;4.50;4.10;;;34.20;56.20;;;;;;6257636;22;20711;-93
2021/07/28 15:19:15;;;;;;;4.63;4.33;;;31.60;58.30;;;;;;6230638;22;20196;-89
2021/07/28 15:21:46;;;;;;;4.10;3.80;;;29.20;64.60;;;;;;6218242;22;20391;-87
2021/07/28 15:24:13;;;;;;;3.97;3.67;;;29.00;64.60;;;;;;6259685;22;20586;-92
2021/07/28 15:26:40;;;;;;;4.20;3.90;;;30.10;62.10;;;;;;6229332;22;20877;-89
2021/07/28 15:29:06;;;;;;;4.47;4.17;;;30.60;61.40;;;;;;6232708;22;20400;-89
2021/07/28 15:31:36;;;;;;;5.90;3.90;;;30.60;62.90;;;;;;6230581;22;20408;-90
2021/07/28 15:34:04;;;;;;;5.63;4.40;;;31.40;59.80;;;;;;6230238;22;20832;-88
2021/07/28 15:36:30;;;;;;;5.33;3.77;;;31.40;61.20;;;;;;6231606;22;20413;-90
2021/07/28 15:39:01;;;;;;;4.10;3.80;;;33.00;58.50;;;;;;6260032;22;20376;-88
2021/07/28 15:41:27;;;;;;;4.23;3.93;;;32.50;57.10;;;;;;6231967;22;20758;-88
2021/07/28 15:44:02;;;;;;;4.40;4.10;;;30.30;60.40;;;;;;6257378;22;20437;-91
2021/07/28 15:46:29;;;;;;;4.33;3.97;;;29.40;63.60;;;;;;6232036;22;20166;-86
2021/07/28 15:49:04;;;;;;;4.30;3.90;;;29.10;64.50;;;;;;6235236;22;20795;-92
2021/07/28 15:51:40;;;;;;;4.07;3.77;;;31.20;62.30;;;;;;6259007;22;20459;-93
2021/07/28 15:54:09;;;;;;;4.20;3.90;;;33.80;57.40;;;;;;6257504;22;20731;-88
2021/07/28 15:59:39;;;;;;;4.10;3.80;;;31.80;57.80;;;;;;6256608;22;20803;-91
2021/07/28 16:02:31;;;;;;;4.20;3.83;;;31.60;58.70;;;;;;6230725;22;20485;-90
2021/07/28 16:04:57;;;;;;;4.40;4.00;;;30.90;58.80;;;;;;6228436;22;20444;-88
2021/07/28 16:07:26;;;;;;;4.60;4.20;;;32.70;57.50;;;;;;6229910;22;20700;-87
2021/07/28 16:09:55;;;;;;;4.07;3.77;;;32.30;56.10;;;;;;6229243;22;20416;-88
2021/07/28 16:12:21;;;;;;;4.50;4.20;;;31.00;57.70;;;;;;6259849;22;20383;-88
2021/07/28 16:15:32;;;;;;;;;;;;;;;;;;;;;
2021/07/28 16:18:21;;;;;;;4.13;3.83;;;29.90;60.50;;;;;;6259592;22;20381;-90
2021/07/28 16:20:53;;;;;;;4.63;4.20;;;27.20;68.50;;;;;;6231837;22;21247;-89
2021/07/28 16:23:22;;;;;;;4.90;4.50;;;25.90;72.50;;;;;;6233387;22;20874;-88
2021/07/28 16:26:18;;;;;;;4.43;4.13;;;26.80;73.00;;;;;;6233444;22;20904;-90
2021/07/28 16:51:56;;;;;;;4.00;3.80;;;33.60;57.60;;;;;;6226677;22;20929;-84
2021/07/28 16:54:22;;;;;;;4.40;4.10;;;33.40;57.10;;;;;;6200073;23;20776;-83
2021/07/28 16:56:48;;;;;;;4.30;4.00;;;32.60;57.20;;;;;;6202755;23;20167;-82
2021/07/28 16:59:14;;;;;;;4.23;3.83;;;31.90;56.80;;;;;;6201727;23;20409;-81
2021/07/28 17:01:40;;;;;;;4.40;4.10;;;31.50;57.90;;;;;;6200430;23;20950;-82
2021/07/28 17:04:06;;;;;;;4.37;4.07;;;32.00;58.20;;;;;;6206566;23;20270;-84
2021/07/28 17:06:32;;;;;;;4.53;4.13;;;32.40;57.00;;;;;;6209990;23;20162;-83
2021/07/28 17:08:58;;;;;;;4.93;4.53;;;32.30;57.60;;;;;;6210590;23;20170;-84
2021/07/28 17:11:23;;;;;;;4.80;4.40;;;32.60;57.60;;;;;;6210074;23;20394;-83
2021/07/28 17:13:49;;;;;;;4.93;4.60;;;32.30;56.70;;;;;;6210813;23;20557;-84
2021/07/28 17:16:14;;;;;;;6.57;4.53;;;29.20;62.40;;;;;;6208488;23;20158;-84
2021/07/28 17:18:40;;;;;;;5.20;4.50;;;27.30;68.00;;;;;;6208019;23;21195;-83
2021/07/28 17:21:06;;;;;;;4.90;4.50;;;26.00;73.80;;;;;;6235624;23;20200;-83
2021/07/28 17:23:31;;;;;;;4.70;4.30;;;25.00;77.20;;;;;;6235662;23;20242;-84
2021/07/28 17:25:57;;;;;;;4.80;4.40;;;24.40;79.30;;;;;;6236242;23;20632;-84
2021/07/28 17:28:23;;;;;;;5.00;4.60;;;24.10;82.00;;;;;;6237274;23;20163;-84
2021/07/28 17:30:52;;;;;;;5.00;4.60;;;23.80;83.60;;;;;;6209354;23;20155;-84
2021/07/28 17:33:17;;;;;;;5.13;4.00;;;23.70;85.30;;;;;;6237006;23;20248;-84
2021/07/28 17:35:48;;;;;;;4.37;4.07;;;23.60;86.00;;;;;;6236126;23;20378;-83
2021/07/28 17:38:37;;;;;;;5.00;4.60;;;23.50;86.60;;;;;;6210562;23;20167;-84
2021/07/28 17:41:08;;;;;;;5.57;5.07;;;23.50;87.80;;;;;;6236545;23;20382;-83
2021/07/28 17:43:38;;;;;;;6.43;4.93;;;23.40;88.80;;;;;;6235690;23;20456;-84
2021/07/28 17:46:04;;;;;;;5.50;5.00;;;23.30;90.00;;;;;;6236897;23;20389;-83
2021/07/28 17:48:30;;;;;;;6.30;5.73;;;23.30;90.10;;;;;;6209837;23;20645;-83
2021/07/28 17:50:56;;;;;;;4.73;4.33;;;23.30;90.30;;;;;;6236081;23;20477;-83
2021/07/28 17:53:22;;;;;;;6.00;5.40;;;23.20;90.80;;;;;;6211644;23;20214;-84
2021/07/28 17:55:48;;;;;;;4.83;4.43;;;23.00;92.30;;;;;;6209005;23;20791;-83
2021/07/28 17:58:15;;;;;;;4.40;4.00;;;22.80;94.40;;;;;;6237171;23;20398;-83
2021/07/28 18:00:42;;;;;;;4.80;4.50;;;22.30;96.10;;;;;;6209270;23;20431;-82
2021/07/28 18:03:08;;;;;;;3.57;3.27;;;21.90;98.00;;;;;;6209071;23;20473;-82
2021/07/28 18:05:40;;;;;;;3.33;3.13;;;21.40;99.90;;;;;;6201549;23;20901;-83
2021/07/28 18:08:10;;;;;;;3.30;2.70;;;21.20;99.90;;;;;;6209536;23;20401;-82
2021/07/28 18:10:37;;;;;;;3.00;2.80;;;21.10;99.90;;;;;;6208498;23;20408;-83
2021/07/28 18:13:04;;;;;;;2.60;2.40;;;21.20;99.90;;;;;;6209431;23;20863;-83
2021/07/28 18:15:30;;;;;;;3.03;2.70;;;21.00;99.90;;;;;;6208159;23;20463;-83
2021/07/28 18:17:57;;;;;;;3.50;3.20;;;20.90;99.90;;;;;;6203367;23;20460;-82
2021/07/28 18:20:22;;;;;;;2.97;2.77;;;20.80;99.90;;;;;;6207924;23;20401;-84
2021/07/28 18:22:53;;;;;;;5.30;2.60;;;20.80;99.90;;;;;;6234087;23;20448;-83
2021/07/28 18:25:19;;;;;;;4.40;3.03;;;20.80;99.90;;;;;;6206436;23;20707;-83
2021/07/28 18:27:44;;;;;;;3.27;2.97;;;20.80;99.90;;;;;;6203015;23;20420;-83
2021/07/28 18:30:12;;;;;;;3.30;3.03;;;20.80;99.90;;;;;;6203885;23;20167;-83
2021/07/28 18:32:38;;;;;;;2.97;2.77;;;20.60;99.90;;;;;;6204352;23;20167;-83
2021/07/28 18:35:06;;;;;;;2.93;2.70;;;20.50;99.90;;;;;;6201728;23;20402;-83
2021/07/28 18:37:32;;;;;;;3.60;3.30;;;20.30;99.90;;;;;;6206615;23;20523;-83
2021/07/28 18:39:57;;;;;;;3.80;3.47;;;20.10;99.90;;;;;;6232267;23;20410;-83
2021/07/28 18:42:23;;;;;;;3.80;3.20;;;19.90;99.90;;;;;;6206738;23;20975;-83
2021/07/28 18:44:49;;;;;;;4.03;3.20;;;19.90;99.90;;;;;;6205000;23;20637;-82
2021/07/28 18:47:15;;;;;;;3.63;3.40;;;19.90;99.90;;;;;;6207387;23;20170;-84
2021/07/28 18:49:41;;;;;;;4.37;3.97;;;19.90;99.90;;;;;;6208172;23;20462;-84
2021/07/28 18:52:07;;;;;;;6.00;3.60;;;19.80;99.90;;;;;;6234773;23;20386;-85
2021/07/28 18:54:33;;;;;;;4.37;4.00;;;19.80;99.90;;;;;;6206457;23;20564;-81
2021/07/28 18:56:59;;;;;;;3.97;3.53;;;19.80;99.90;;;;;;6207700;23;20428;-81
2021/07/28 18:59:24;;;;;;;4.13;3.73;;;19.80;99.90;;;;;;6207630;23;20155;-81
2021/07/28 19:01:50;;;;;;;3.87;3.57;;;19.70;99.90;;;;;;6207815;23;20158;-81
2021/07/28 19:04:16;;;;;;;4.77;3.87;;;19.70;99.90;;;;;;6209623;23;20284;-82
2021/07/28 19:06:42;;;;;;;5.00;4.50;;;19.60;99.90;;;;;;6207868;23;20301;-82
2021/07/28 19:09:07;;;;;;;4.80;4.40;;;19.60;99.90;;;;;;6207889;23;20171;-82
2021/07/28 19:11:34;;;;;;;5.93;4.03;;;19.70;99.90;;;;;;6208913;23;20158;-81
2021/07/28 19:14:09;;;;;;;4.57;4.20;;;19.80;99.90;;;;;;6207106;23;20175;-88
2021/07/28 19:16:36;;;;;;;4.50;4.10;;;19.70;99.90;;;;;;6210423;23;20404;-88
2021/07/28 19:19:03;;;;;;;4.40;4.00;;;19.60;99.90;;;;;;6209024;23;20417;-87
2021/07/28 19:21:37;;;;;;;4.77;4.37;;;19.60;99.90;;;;;;6208652;23;20738;-87
2021/07/28 19:24:06;;;;;;;5.60;5.10;;;19.60;99.90;;;;;;6208170;23;20523;-87
2021/07/28 19:26:43;;;;;;;5.20;4.70;;;19.50;99.90;;;;;;6209843;23;20422;-88
2021/07/28 19:29:10;;;;;;;4.10;3.70;;;19.50;99.90;;;;;;6211371;23;20437;-87
2021/07/28 19:31:40;;;;;;;5.13;3.83;;;19.40;99.90;;;;;;6210081;23;20730;-86
2021/07/28 19:34:09;;;;;;;4.50;3.90;;;19.40;99.90;;;;;;6210292;23;20393;-88
2021/07/28 19:36:37;;;;;;;4.20;3.90;;;19.50;99.90;;;;;;6210830;23;20443;-87
2021/07/28 19:39:10;;;;;;;4.23;3.93;;;19.50;99.90;;;;;;6210518;23;20852;-88
2021/07/28 19:41:38;;;;;;;4.63;4.10;;;19.40;99.90;;;;;;6209366;23;20413;-87
2021/07/28 19:44:04;;;;;;;4.17;3.87;;;19.30;99.90;;;;;;6209392;23;20447;-87
2021/07/28 19:46:30;;;;;;;4.60;4.20;;;19.20;99.90;;;;;;6210737;23;20485;-88
2021/07/28 19:48:56;;;;;;;4.13;3.67;;;19.10;99.90;;;;;;6210396;23;20896;-87
2021/07/28 19:51:22;;;;;;;3.63;3.33;;;19.00;99.90;;;;;;6209868;23;20178;-87
2021/07/28 19:53:55;;;;;;;4.70;4.30;;;19.10;99.90;;;;;;6208138;23;20159;-88
2021/07/28 19:56:29;;;;;;;3.67;3.37;;;19.10;99.90;;;;;;6210549;23;20416;-87
2021/07/28 19:58:57;;;;;;;3.70;3.40;;;19.10;99.90;;;;;;6206812;23;20400;-87
2021/07/28 20:01:23;;;;;;;4.17;3.87;;;19.10;99.90;;;;;;6206555;23;20394;-86
2021/07/28 20:03:49;;;;;;;4.03;3.50;;;19.10;99.90;;;;;;6207562;23;20492;-86
2021/07/28 20:06:15;;;;;;;3.30;3.10;;;19.00;99.90;;;;;;6209726;23;20163;-86
2021/07/28 20:08:41;;;;;;;4.70;3.63;;;18.90;99.90;;;;;;6209806;23;20386;-86
2021/07/28 20:11:07;;;;;;;4.17;3.80;;;18.80;99.90;;;;;;6209256;23;20398;-88
2021/07/28 20:13:53;;;;;;;;;;;;;;;;;;;;;
2021/07/28 20:16:30;;;;;;;3.83;3.53;;;18.80;99.90;;;;;;6235351;23;20472;-91
2021/07/28 20:18:59;;;;;;;9.57;4.00;;;18.70;99.90;;;;;;6233980;23;20378;-90
2021/07/28 20:21:33;;;;;;;3.77;3.47;;;18.60;99.90;;;;;;6206543;23;20473;-91
2021/07/28 20:25:01;;;;;;;3.97;3.57;;;18.60;99.90;;;;;;6201065;23;20546;-90
2021/07/28 20:27:50;;;;;;;3.93;3.53;;;18.70;99.90;;;;;;6183521;23;20394;-91
2021/07/28 20:38:21;;;;;;;3.40;3.10;;;18.00;99.90;;;;;;6264687;22;20424;-91
2021/07/28 20:40:57;;;;;;;3.70;3.40;;;18.00;99.90;;;;;;6236602;22;20454;-90
2021/07/28 20:47:28;;;;;;;4.53;3.93;;;17.80;99.90;;;;;;6073325;23;20440;-91
2021/07/28 20:50:03;;;;;;;4.27;3.53;;;17.60;99.90;;;;;;6140191;23;20898;-87
2021/07/28 20:52:49;;;;;;;4.43;4.10;;;17.50;99.90;;;;;;6138594;23;20384;-88
2021/07/28 20:55:18;;;;;;;5.90;3.67;;;17.30;99.90;;;;;;6217283;22;20393;-88
2021/07/28 20:57:43;;;;;;;4.53;4.13;;;17.20;99.90;;;;;;6267381;22;20718;-89
2021/07/28 21:00:12;;;;;;;4.47;3.53;;;17.20;99.90;;;;;;6238123;22;20712;-87
2021/07/28 21:02:39;;;;;;;4.80;4.40;;;17.10;99.90;;;;;;6239751;22;20193;-87
2021/07/28 21:05:08;;;;;;;4.57;4.17;;;17.00;99.90;;;;;;6265081;22;20436;-87
2021/07/28 21:07:47;;;;;;;4.97;4.13;;;16.90;99.90;;;;;;6238073;22;20397;-90
2021/07/28 21:10:13;;;;;;;5.07;3.80;;;16.90;99.90;;;;;;6256048;22;20397;-88
2021/07/28 21:12:49;;;;;;;4.17;3.60;;;17.00;99.90;;;;;;6262188;22;20466;-88
2021/07/28 21:15:14;;;;;;;4.13;3.73;;;17.10;99.90;;;;;;6242769;22;20411;-89
2021/07/28 21:17:50;;;;;;;4.43;4.03;;;17.00;99.90;;;;;;6241939;22;20393;-89
2021/07/28 21:20:19;;;;;;;6.00;3.57;;;17.00;99.90;;;;;;6247226;22;20168;-87
2021/07/28 21:22:49;;;;;;;5.47;4.60;;;16.80;99.90;;;;;;6262811;22;20449;-89
2021/07/28 21:54:57;;;;;;;4.27;3.80;;;16.60;99.90;;;;;;6266493;22;20711;-88
2021/07/28 21:57:34;;;;;;;;;;;;;;;;;;;;;
2021/07/28 22:00:22;;;;;;;8.40;7.60;;;16.50;99.90;;;;;;6238708;22;20400;-90
2021/07/28 22:03:07;;;;;;;4.80;4.33;;;16.50;99.90;;;;;;6240051;22;20839;-90
2021/07/28 22:45:11;;;;;;;4.60;4.20;;;16.70;99.90;;;;;;5965295;23;20461;-87
2021/07/28 22:54:05;;;;;;;4.40;4.00;;;17.10;99.90;;;;;;6261114;22;20467;-88
2021/07/28 23:54:55;;;;;;;5.40;4.90;;;16.40;99.90;;;;;;6237910;22;20457;-87
2021/07/28 23:57:26;;;;;;;5.30;4.90;;;16.50;99.90;;;;;;6237520;22;20411;-86
2021/07/28 23:59:55;;;;;;;5.97;4.63;;;16.50;99.90;;;;;;6236834;22;20400;-87
